sensor_id;sensor_type;location;lat;lon;timestamp;P1;durP1;ratioP1;P2;durP2;ratioP2
71423;SDS011;59240;51.370;-0.486;2022-08-03T00:01:26;15.68;;;3.70;;
71423;SDS011;59240;51.370;-0.486;2022-08-03T00:03:53;14.20;;;3.80;;
71423;SDS011;59240;51.370;-0.486;2022-08-03T00:06:19;9.13;;;3.10;;
71423;SDS011;59240;51.370;-0.486;2022-08-03T00:08:46;16.92;;;3.90;;
71423;SDS011;59240;51.370;-0.486;2022-08-03T00:11:13;14.77;;;3.38;;
71423;SDS011;59240;51.370;-0.486;2022-08-03T00:13:39;15.00;;;3.70;;
71423;SDS011;59240;51.370;-0.486;2022-08-03T00:16:06;15.18;;;3.78;;
71423;SDS011;59240;51.370;-0.486;2022-08-03T00:18:36;14.55;;;3.63;;
71423;SDS011;59240;51.370;-0.486;2022-08-03T00:21:03;16.33;;;4.25;;
71423;SDS011;59240;51.370;-0.486;2022-08-03T00:23:31;11.95;;;3.60;;
71423;SDS011;59240;51.370;-0.486;2022-08-03T00:26:18;15.95;;;4.10;;
71423;SDS011;59240;51.370;-0.486;2022-08-03T00:28:45;13.65;;;3.45;;
71423;SDS011;59240;51.370;-0.486;2022-08-03T00:31:12;16.25;;;3.85;;
71423;SDS011;59240;51.370;-0.486;2022-08-03T00:33:39;20.02;;;3.95;;
71423;SDS011;59240;51.370;-0.486;2022-08-03T00:36:25;15.07;;;3.65;;
71423;SDS011;59240;51.370;-0.486;2022-08-03T00:38:52;12.23;;;3.33;;
71423;SDS011;59240;51.370;-0.486;2022-08-03T00:41:19;15.30;;;3.70;;
71423;SDS011;59240;51.370;-0.486;2022-08-03T00:43:46;14.93;;;3.75;;
71423;SDS011;59240;51.370;-0.486;2022-08-03T00:46:13;19.08;;;4.10;;
71423;SDS011;59240;51.370;-0.486;2022-08-03T00:48:49;13.88;;;3.97;;
71423;SDS011;59240;51.370;-0.486;2022-08-03T00:51:21;12.70;;;3.55;;
71423;SDS011;59240;51.370;-0.486;2022-08-03T00:53:49;16.05;;;3.97;;
71423;SDS011;59240;51.370;-0.486;2022-08-03T00:56:16;14.07;;;3.60;;
71423;SDS011;59240;51.370;-0.486;2022-08-03T00:58:43;16.17;;;4.07;;
71423;SDS011;59240;51.370;-0.486;2022-08-03T01:01:11;14.52;;;3.90;;
71423;SDS011;59240;51.370;-0.486;2022-08-03T01:03:38;17.02;;;4.35;;
71423;SDS011;59240;51.370;-0.486;2022-08-03T01:08:57;17.83;;;4.13;;
71423;SDS011;59240;51.370;-0.486;2022-08-03T01:11:40;13.13;;;3.67;;
71423;SDS011;59240;51.370;-0.486;2022-08-03T01:17:01;12.70;;;3.92;;
71423;SDS011;59240;51.370;-0.486;2022-08-03T01:19:52;8.98;;;3.63;;
71423;SDS011;59240;51.370;-0.486;2022-08-03T01:27:56;11.45;;;3.67;;
71423;SDS011;59240;51.370;-0.486;2022-08-03T01:30:36;12.23;;;3.47;;
71423;SDS011;59240;51.370;-0.486;2022-08-03T01:33:08;15.68;;;3.90;;
71423;SDS011;59240;51.370;-0.486;2022-08-03T01:35:56;18.60;;;4.30;;
71423;SDS011;59240;51.370;-0.486;2022-08-03T01:40:54;15.23;;;4.18;;
71423;SDS011;59240;51.370;-0.486;2022-08-03T01:43:25;10.00;;;3.53;;
71423;SDS011;59240;51.370;-0.486;2022-08-03T01:46:14;16.13;;;3.65;;
71423;SDS011;59240;51.370;-0.486;2022-08-03T01:48:43;13.75;;;3.72;;
71423;SDS011;59240;51.370;-0.486;2022-08-03T01:51:12;13.15;;;3.30;;
71423;SDS011;59240;51.370;-0.486;2022-08-03T01:53:42;16.65;;;4.00;;
71423;SDS011;59240;51.370;-0.486;2022-08-03T01:56:10;14.48;;;3.90;;
71423;SDS011;59240;51.370;-0.486;2022-08-03T01:58:38;17.48;;;3.88;;
71423;SDS011;59240;51.370;-0.486;2022-08-03T02:01:07;12.32;;;3.40;;
71423;SDS011;59240;51.370;-0.486;2022-08-03T02:03:36;21.27;;;3.83;;
71423;SDS011;59240;51.370;-0.486;2022-08-03T02:06:25;14.40;;;3.63;;
71423;SDS011;59240;51.370;-0.486;2022-08-03T02:09:13;14.20;;;3.45;;
71423;SDS011;59240;51.370;-0.486;2022-08-03T02:11:42;13.30;;;3.40;;
71423;SDS011;59240;51.370;-0.486;2022-08-03T02:14:11;15.60;;;3.50;;
71423;SDS011;59240;51.370;-0.486;2022-08-03T02:16:40;16.08;;;3.38;;
71423;SDS011;59240;51.370;-0.486;2022-08-03T02:19:09;13.05;;;4.10;;
71423;SDS011;59240;51.370;-0.486;2022-08-03T02:21:36;8.10;;;3.10;;
71423;SDS011;59240;51.370;-0.486;2022-08-03T02:24:24;14.77;;;3.25;;
71423;SDS011;59240;51.370;-0.486;2022-08-03T02:26:51;23.52;;;3.70;;
71423;SDS011;59240;51.370;-0.486;2022-08-03T02:29:23;12.07;;;3.50;;
71423;SDS011;59240;51.370;-0.486;2022-08-03T02:32:06;11.48;;;3.10;;
71423;SDS011;59240;51.370;-0.486;2022-08-03T02:34:40;12.38;;;3.40;;
71423;SDS011;59240;51.370;-0.486;2022-08-03T02:37:10;10.65;;;3.05;;
71423;SDS011;59240;51.370;-0.486;2022-08-03T02:39:38;11.45;;;3.33;;
71423;SDS011;59240;51.370;-0.486;2022-08-03T02:42:08;15.23;;;3.45;;
71423;SDS011;59240;51.370;-0.486;2022-08-03T02:44:38;9.88;;;3.53;;
71423;SDS011;59240;51.370;-0.486;2022-08-03T02:47:07;10.18;;;3.13;;
71423;SDS011;59240;51.370;-0.486;2022-08-03T02:49:36;11.13;;;3.17;;
71423;SDS011;59240;51.370;-0.486;2022-08-03T02:52:18;11.45;;;2.72;;
71423;SDS011;59240;51.370;-0.486;2022-08-03T02:54:47;14.15;;;3.05;;
71423;SDS011;59240;51.370;-0.486;2022-08-03T02:57:16;10.70;;;3.13;;
71423;SDS011;59240;51.370;-0.486;2022-08-03T02:59:46;11.63;;;3.10;;
71423;SDS011;59240;51.370;-0.486;2022-08-03T03:02:14;14.70;;;3.67;;
71423;SDS011;59240;51.370;-0.486;2022-08-03T03:04:43;15.15;;;3.40;;
71423;SDS011;59240;51.370;-0.486;2022-08-03T03:07:31;15.98;;;3.67;;
71423;SDS011;59240;51.370;-0.486;2022-08-03T03:10:18;13.07;;;3.45;;
71423;SDS011;59240;51.370;-0.486;2022-08-03T03:12:47;11.80;;;3.30;;
71423;SDS011;59240;51.370;-0.486;2022-08-03T03:15:17;12.48;;;3.00;;
71423;SDS011;59240;51.370;-0.486;2022-08-03T03:17:44;10.20;;;2.95;;
71423;SDS011;59240;51.370;-0.486;2022-08-03T03:20:12;10.95;;;3.47;;
71423;SDS011;59240;51.370;-0.486;2022-08-03T03:22:55;10.43;;;2.85;;
71423;SDS011;59240;51.370;-0.486;2022-08-03T03:25:23;10.30;;;2.95;;
71423;SDS011;59240;51.370;-0.486;2022-08-03T03:27:50;11.27;;;2.80;;
71423;SDS011;59240;51.370;-0.486;2022-08-03T03:30:17;17.83;;;3.42;;
71423;SDS011;59240;51.370;-0.486;2022-08-03T03:32:44;11.75;;;3.25;;
71423;SDS011;59240;51.370;-0.486;2022-08-03T03:35:11;11.80;;;3.33;;
71423;SDS011;59240;51.370;-0.486;2022-08-03T03:37:39;10.70;;;2.58;;
71423;SDS011;59240;51.370;-0.486;2022-08-03T03:40:06;7.40;;;2.17;;
71423;SDS011;59240;51.370;-0.486;2022-08-03T03:42:34;11.65;;;3.05;;
71423;SDS011;59240;51.370;-0.486;2022-08-03T03:45:04;14.85;;;2.85;;
71423;SDS011;59240;51.370;-0.486;2022-08-03T03:47:35;10.30;;;2.42;;
71423;SDS011;59240;51.370;-0.486;2022-08-03T03:50:03;14.68;;;2.70;;
71423;SDS011;59240;51.370;-0.486;2022-08-03T03:52:32;12.02;;;2.95;;
71423;SDS011;59240;51.370;-0.486;2022-08-03T03:54:59;11.68;;;2.58;;
71423;SDS011;59240;51.370;-0.486;2022-08-03T03:57:27;6.35;;;2.13;;
71423;SDS011;59240;51.370;-0.486;2022-08-03T03:59:54;12.65;;;2.80;;
71423;SDS011;59240;51.370;-0.486;2022-08-03T04:02:21;8.13;;;2.60;;
71423;SDS011;59240;51.370;-0.486;2022-08-03T04:04:48;8.20;;;2.50;;
71423;SDS011;59240;51.370;-0.486;2022-08-03T04:07:37;12.32;;;2.45;;
71423;SDS011;59240;51.370;-0.486;2022-08-03T04:10:35;9.15;;;2.50;;
71423;SDS011;59240;51.370;-0.486;2022-08-03T04:13:23;9.48;;;2.47;;
71423;SDS011;59240;51.370;-0.486;2022-08-03T04:15:53;10.70;;;2.63;;
71423;SDS011;59240;51.370;-0.486;2022-08-03T04:18:22;11.68;;;2.42;;
71423;SDS011;59240;51.370;-0.486;2022-08-03T04:20:54;9.32;;;2.25;;
71423;SDS011;59240;51.370;-0.486;2022-08-03T04:23:24;14.75;;;2.60;;
71423;SDS011;59240;51.370;-0.486;2022-08-03T04:25:52;10.48;;;2.50;;
71423;SDS011;59240;51.370;-0.486;2022-08-03T04:28:21;11.05;;;2.80;;
71423;SDS011;59240;51.370;-0.486;2022-08-03T04:30:57;14.55;;;2.53;;
71423;SDS011;59240;51.370;-0.486;2022-08-03T04:33:26;9.65;;;2.58;;
71423;SDS011;59240;51.370;-0.486;2022-08-03T04:35:58;10.05;;;2.33;;
71423;SDS011;59240;51.370;-0.486;2022-08-03T04:38:30;9.35;;;2.60;;
71423;SDS011;59240;51.370;-0.486;2022-08-03T04:41:09;14.93;;;2.53;;
71423;SDS011;59240;51.370;-0.486;2022-08-03T04:43:37;13.50;;;2.28;;
71423;SDS011;59240;51.370;-0.486;2022-08-03T04:46:07;8.20;;;2.03;;
71423;SDS011;59240;51.370;-0.486;2022-08-03T04:48:35;6.60;;;1.85;;
71423;SDS011;59240;51.370;-0.486;2022-08-03T04:51:02;9.77;;;2.33;;
71423;SDS011;59240;51.370;-0.486;2022-08-03T04:53:29;8.52;;;2.20;;
71423;SDS011;59240;51.370;-0.486;2022-08-03T04:56:02;9.60;;;2.58;;
71423;SDS011;59240;51.370;-0.486;2022-08-03T04:58:31;7.03;;;2.13;;
71423;SDS011;59240;51.370;-0.486;2022-08-03T05:00:58;9.82;;;2.42;;
71423;SDS011;59240;51.370;-0.486;2022-08-03T05:03:25;6.93;;;2.05;;
71423;SDS011;59240;51.370;-0.486;2022-08-03T05:05:52;11.55;;;2.53;;
71423;SDS011;59240;51.370;-0.486;2022-08-03T05:08:36;12.70;;;2.15;;
71423;SDS011;59240;51.370;-0.486;2022-08-03T05:11:14;11.70;;;2.30;;
71423;SDS011;59240;51.370;-0.486;2022-08-03T05:13:42;10.98;;;2.40;;
71423;SDS011;59240;51.370;-0.486;2022-08-03T05:16:10;7.05;;;1.90;;
71423;SDS011;59240;51.370;-0.486;2022-08-03T05:18:37;9.05;;;1.90;;
71423;SDS011;59240;51.370;-0.486;2022-08-03T05:21:04;7.03;;;2.10;;
71423;SDS011;59240;51.370;-0.486;2022-08-03T05:23:30;9.52;;;2.25;;
71423;SDS011;59240;51.370;-0.486;2022-08-03T05:25:57;9.85;;;1.75;;
71423;SDS011;59240;51.370;-0.486;2022-08-03T05:28:24;10.68;;;2.20;;
71423;SDS011;59240;51.370;-0.486;2022-08-03T05:30:51;7.18;;;1.45;;
71423;SDS011;59240;51.370;-0.486;2022-08-03T05:33:18;9.43;;;2.13;;
71423;SDS011;59240;51.370;-0.486;2022-08-03T05:35:44;8.13;;;1.63;;
71423;SDS011;59240;51.370;-0.486;2022-08-03T05:38:28;8.13;;;1.90;;
71423;SDS011;59240;51.370;-0.486;2022-08-03T05:41:00;7.63;;;1.80;;
71423;SDS011;59240;51.370;-0.486;2022-08-03T05:43:50;8.07;;;1.65;;
71423;SDS011;59240;51.370;-0.486;2022-08-03T05:46:19;10.27;;;1.80;;
71423;SDS011;59240;51.370;-0.486;2022-08-03T05:48:47;6.22;;;1.58;;
71423;SDS011;59240;51.370;-0.486;2022-08-03T05:51:13;5.38;;;1.88;;
71423;SDS011;59240;51.370;-0.486;2022-08-03T05:53:41;6.80;;;1.85;;
71423;SDS011;59240;51.370;-0.486;2022-08-03T05:56:09;7.22;;;1.98;;
71423;SDS011;59240;51.370;-0.486;2022-08-03T05:58:40;5.13;;;1.90;;
71423;SDS011;59240;51.370;-0.486;2022-08-03T06:01:11;4.85;;;2.30;;
71423;SDS011;59240;51.370;-0.486;2022-08-03T06:03:38;7.97;;;2.05;;
71423;SDS011;59240;51.370;-0.486;2022-08-03T06:06:05;6.18;;;2.15;;
71423;SDS011;59240;51.370;-0.486;2022-08-03T06:08:33;5.10;;;2.30;;
71423;SDS011;59240;51.370;-0.486;2022-08-03T06:11:00;8.40;;;3.13;;
71423;SDS011;59240;51.370;-0.486;2022-08-03T06:13:27;5.25;;;2.35;;
71423;SDS011;59240;51.370;-0.486;2022-08-03T06:15:54;6.68;;;2.88;;
71423;SDS011;59240;51.370;-0.486;2022-08-03T06:18:21;10.57;;;2.90;;
71423;SDS011;59240;51.370;-0.486;2022-08-03T06:20:50;6.97;;;3.20;;
71423;SDS011;59240;51.370;-0.486;2022-08-03T06:23:17;10.05;;;2.97;;
71423;SDS011;59240;51.370;-0.486;2022-08-03T06:25:45;8.68;;;3.42;;
71423;SDS011;59240;51.370;-0.486;2022-08-03T06:28:12;6.32;;;3.08;;
71423;SDS011;59240;51.370;-0.486;2022-08-03T06:31:00;8.93;;;3.08;;
71423;SDS011;59240;51.370;-0.486;2022-08-03T06:33:28;9.75;;;3.33;;
71423;SDS011;59240;51.370;-0.486;2022-08-03T06:38:41;10.15;;;2.72;;
71423;SDS011;59240;51.370;-0.486;2022-08-03T06:41:08;7.55;;;2.75;;
71423;SDS011;59240;51.370;-0.486;2022-08-03T06:43:34;7.65;;;2.78;;
71423;SDS011;59240;51.370;-0.486;2022-08-03T06:46:22;7.15;;;2.72;;
71423;SDS011;59240;51.370;-0.486;2022-08-03T06:48:49;4.20;;;2.30;;
71423;SDS011;59240;51.370;-0.486;2022-08-03T06:51:16;9.77;;;2.60;;
71423;SDS011;59240;51.370;-0.486;2022-08-03T06:53:43;6.40;;;2.38;;
71423;SDS011;59240;51.370;-0.486;2022-08-03T06:56:10;8.13;;;2.28;;
71423;SDS011;59240;51.370;-0.486;2022-08-03T06:58:37;7.45;;;2.20;;
71423;SDS011;59240;51.370;-0.486;2022-08-03T07:01:03;3.20;;;1.73;;
71423;SDS011;59240;51.370;-0.486;2022-08-03T07:03:30;2.75;;;1.40;;
71423;SDS011;59240;51.370;-0.486;2022-08-03T07:05:58;2.50;;;1.60;;
71423;SDS011;59240;51.370;-0.486;2022-08-03T07:08:25;4.18;;;1.20;;
71423;SDS011;59240;51.370;-0.486;2022-08-03T07:10:59;2.58;;;1.35;;
71423;SDS011;59240;51.370;-0.486;2022-08-03T07:13:26;4.32;;;1.42;;
71423;SDS011;59240;51.370;-0.486;2022-08-03T07:15:54;3.17;;;1.25;;
71423;SDS011;59240;51.370;-0.486;2022-08-03T07:18:23;3.20;;;1.20;;
71423;SDS011;59240;51.370;-0.486;2022-08-03T07:20:55;4.43;;;1.00;;
71423;SDS011;59240;51.370;-0.486;2022-08-03T07:23:23;0.65;;;0.63;;
71423;SDS011;59240;51.370;-0.486;2022-08-03T07:25:51;2.83;;;0.80;;
71423;SDS011;59240;51.370;-0.486;2022-08-03T07:28:18;3.03;;;1.10;;
71423;SDS011;59240;51.370;-0.486;2022-08-03T07:30:48;0.63;;;0.55;;
71423;SDS011;59240;51.370;-0.486;2022-08-03T07:33:15;1.50;;;0.80;;
71423;SDS011;59240;51.370;-0.486;2022-08-03T07:35:41;2.75;;;0.88;;
71423;SDS011;59240;51.370;-0.486;2022-08-03T07:38:08;3.00;;;1.00;;
71423;SDS011;59240;51.370;-0.486;2022-08-03T07:40:35;2.45;;;0.93;;
71423;SDS011;59240;51.370;-0.486;2022-08-03T07:43:10;2.85;;;0.82;;
71423;SDS011;59240;51.370;-0.486;2022-08-03T07:45:37;3.67;;;0.60;;
71423;SDS011;59240;51.370;-0.486;2022-08-03T07:48:04;3.35;;;1.00;;
71423;SDS011;59240;51.370;-0.486;2022-08-03T07:50:37;2.72;;;1.00;;
71423;SDS011;59240;51.370;-0.486;2022-08-03T07:53:04;3.20;;;1.23;;
71423;SDS011;59240;51.370;-0.486;2022-08-03T07:55:31;1.60;;;1.00;;
71423;SDS011;59240;51.370;-0.486;2022-08-03T07:58:05;2.10;;;1.17;;
71423;SDS011;59240;51.370;-0.486;2022-08-03T08:00:35;3.03;;;1.20;;
71423;SDS011;59240;51.370;-0.486;2022-08-03T08:03:02;1.35;;;0.98;;
71423;SDS011;59240;51.370;-0.486;2022-08-03T08:05:30;1.48;;;0.90;;
71423;SDS011;59240;51.370;-0.486;2022-08-03T08:07:56;2.38;;;1.00;;
71423;SDS011;59240;51.370;-0.486;2022-08-03T08:10:23;3.38;;;1.08;;
71423;SDS011;59240;51.370;-0.486;2022-08-03T08:12:51;3.63;;;1.10;;
71423;SDS011;59240;51.370;-0.486;2022-08-03T08:15:18;0.85;;;0.85;;
71423;SDS011;59240;51.370;-0.486;2022-08-03T08:17:46;1.98;;;1.40;;
71423;SDS011;59240;51.370;-0.486;2022-08-03T08:20:21;4.28;;;1.50;;
71423;SDS011;59240;51.370;-0.486;2022-08-03T08:23:00;2.72;;;1.60;;
71423;SDS011;59240;51.370;-0.486;2022-08-03T08:25:49;3.78;;;1.75;;
71423;SDS011;59240;51.370;-0.486;2022-08-03T08:28:17;4.25;;;2.13;;
71423;SDS011;59240;51.370;-0.486;2022-08-03T08:30:58;2.92;;;1.90;;
71423;SDS011;59240;51.370;-0.486;2022-08-03T08:33:25;3.88;;;2.00;;
71423;SDS011;59240;51.370;-0.486;2022-08-03T08:36:11;2.42;;;1.85;;
71423;SDS011;59240;51.370;-0.486;2022-08-03T08:38:41;3.20;;;2.25;;
71423;SDS011;59240;51.370;-0.486;2022-08-03T08:41:10;3.10;;;2.03;;
71423;SDS011;59240;51.370;-0.486;2022-08-03T08:43:38;3.60;;;2.28;;
71423;SDS011;59240;51.370;-0.486;2022-08-03T08:46:05;3.50;;;2.53;;
71423;SDS011;59240;51.370;-0.486;2022-08-03T08:48:36;5.32;;;2.95;;
71423;SDS011;59240;51.370;-0.486;2022-08-03T08:51:07;3.00;;;2.63;;
71423;SDS011;59240;51.370;-0.486;2022-08-03T08:53:36;3.95;;;2.50;;
71423;SDS011;59240;51.370;-0.486;2022-08-03T08:56:06;4.60;;;2.75;;
71423;SDS011;59240;51.370;-0.486;2022-08-03T08:58:38;5.20;;;2.60;;
71423;SDS011;59240;51.370;-0.486;2022-08-03T09:01:12;6.95;;;2.85;;
71423;SDS011;59240;51.370;-0.486;2022-08-03T09:03:39;4.57;;;2.53;;
71423;SDS011;59240;51.370;-0.486;2022-08-03T09:06:06;6.18;;;2.95;;
71423;SDS011;59240;51.370;-0.486;2022-08-03T09:08:33;6.47;;;3.20;;
71423;SDS011;59240;51.370;-0.486;2022-08-03T09:11:00;3.92;;;2.70;;
71423;SDS011;59240;51.370;-0.486;2022-08-03T09:13:29;5.80;;;2.35;;
71423;SDS011;59240;51.370;-0.486;2022-08-03T09:16:18;4.18;;;2.80;;
71423;SDS011;59240;51.370;-0.486;2022-08-03T09:18:46;3.10;;;2.60;;
71423;SDS011;59240;51.370;-0.486;2022-08-03T09:21:17;4.60;;;2.35;;
71423;SDS011;59240;51.370;-0.486;2022-08-03T09:24:00;4.85;;;2.70;;
71423;SDS011;59240;51.370;-0.486;2022-08-03T09:26:32;3.97;;;2.30;;
71423;SDS011;59240;51.370;-0.486;2022-08-03T09:29:02;6.32;;;2.50;;
71423;SDS011;59240;51.370;-0.486;2022-08-03T09:31:40;4.80;;;2.60;;
71423;SDS011;59240;51.370;-0.486;2022-08-03T09:34:13;2.88;;;2.50;;
71423;SDS011;59240;51.370;-0.486;2022-08-03T09:36:48;4.68;;;2.47;;
71423;SDS011;59240;51.370;-0.486;2022-08-03T09:39:17;3.67;;;2.55;;
71423;SDS011;59240;51.370;-0.486;2022-08-03T09:42:10;4.40;;;2.78;;
71423;SDS011;59240;51.370;-0.486;2022-08-03T09:44:41;3.60;;;2.20;;
71423;SDS011;59240;51.370;-0.486;2022-08-03T09:47:10;3.35;;;2.40;;
71423;SDS011;59240;51.370;-0.486;2022-08-03T09:49:39;5.13;;;2.40;;
71423;SDS011;59240;51.370;-0.486;2022-08-03T09:52:15;5.88;;;2.85;;
71423;SDS011;59240;51.370;-0.486;2022-08-03T09:54:58;6.55;;;2.63;;
71423;SDS011;59240;51.370;-0.486;2022-08-03T09:57:28;3.22;;;2.58;;
71423;SDS011;59240;51.370;-0.486;2022-08-03T10:02:39;7.65;;;2.70;;
71423;SDS011;59240;51.370;-0.486;2022-08-03T10:05:08;5.95;;;2.50;;
71423;SDS011;59240;51.370;-0.486;2022-08-03T10:07:46;3.95;;;2.17;;
71423;SDS011;59240;51.370;-0.486;2022-08-03T10:10:14;5.38;;;2.50;;
71423;SDS011;59240;51.370;-0.486;2022-08-03T10:12:57;4.18;;;2.38;;
71423;SDS011;59240;51.370;-0.486;2022-08-03T10:15:25;3.90;;;2.33;;
71423;SDS011;59240;51.370;-0.486;2022-08-03T10:18:12;4.20;;;2.08;;
71423;SDS011;59240;51.370;-0.486;2022-08-03T10:20:44;3.53;;;1.92;;
71423;SDS011;59240;51.370;-0.486;2022-08-03T10:23:16;4.68;;;2.03;;
71423;SDS011;59240;51.370;-0.486;2022-08-03T10:25:46;3.20;;;1.92;;
71423;SDS011;59240;51.370;-0.486;2022-08-03T10:28:18;5.18;;;2.00;;
71423;SDS011;59240;51.370;-0.486;2022-08-03T10:30:48;3.50;;;1.65;;
71423;SDS011;59240;51.370;-0.486;2022-08-03T10:33:19;3.67;;;2.10;;
71423;SDS011;59240;51.370;-0.486;2022-08-03T10:36:09;3.47;;;2.00;;
71423;SDS011;59240;51.370;-0.486;2022-08-03T10:38:48;4.25;;;1.80;;
71423;SDS011;59240;51.370;-0.486;2022-08-03T10:41:20;7.10;;;1.83;;
71423;SDS011;59240;51.370;-0.486;2022-08-03T10:43:57;3.35;;;1.67;;
71423;SDS011;59240;51.370;-0.486;2022-08-03T10:46:35;6.07;;;2.03;;
71423;SDS011;59240;51.370;-0.486;2022-08-03T10:49:13;4.30;;;2.13;;
71423;SDS011;59240;51.370;-0.486;2022-08-03T10:51:59;4.60;;;1.70;;
71423;SDS011;59240;51.370;-0.486;2022-08-03T10:54:47;2.90;;;1.70;;
71423;SDS011;59240;51.370;-0.486;2022-08-03T10:57:45;3.95;;;2.13;;
71423;SDS011;59240;51.370;-0.486;2022-08-03T11:00:24;6.32;;;2.67;;
71423;SDS011;59240;51.370;-0.486;2022-08-03T11:03:00;3.28;;;2.00;;
71423;SDS011;59240;51.370;-0.486;2022-08-03T11:05:39;3.60;;;2.35;;
71423;SDS011;59240;51.370;-0.486;2022-08-03T11:10:48;4.93;;;2.40;;
71423;SDS011;59240;51.370;-0.486;2022-08-03T11:13:19;5.47;;;2.80;;
71423;SDS011;59240;51.370;-0.486;2022-08-03T11:15:48;8.75;;;2.28;;
71423;SDS011;59240;51.370;-0.486;2022-08-03T11:18:20;6.63;;;2.60;;
71423;SDS011;59240;51.370;-0.486;2022-08-03T11:20:56;4.10;;;2.80;;
71423;SDS011;59240;51.370;-0.486;2022-08-03T11:26:31;3.75;;;2.50;;
71423;SDS011;59240;51.370;-0.486;2022-08-03T11:31:55;6.53;;;2.70;;
71423;SDS011;59240;51.370;-0.486;2022-08-03T11:34:22;6.85;;;3.10;;
71423;SDS011;59240;51.370;-0.486;2022-08-03T11:39:56;6.05;;;3.28;;
71423;SDS011;59240;51.370;-0.486;2022-08-03T11:44:50;4.05;;;2.88;;
71423;SDS011;59240;51.370;-0.486;2022-08-03T11:47:19;5.20;;;3.28;;
71423;SDS011;59240;51.370;-0.486;2022-08-03T11:49:47;6.32;;;3.30;;
71423;SDS011;59240;51.370;-0.486;2022-08-03T11:52:16;4.10;;;2.78;;
71423;SDS011;59240;51.370;-0.486;2022-08-03T11:54:44;4.57;;;2.80;;
71423;SDS011;59240;51.370;-0.486;2022-08-03T11:57:11;5.90;;;2.92;;
71423;SDS011;59240;51.370;-0.486;2022-08-03T11:59:38;3.88;;;2.63;;
71423;SDS011;59240;51.370;-0.486;2022-08-03T12:02:11;7.55;;;3.25;;
71423;SDS011;59240;51.370;-0.486;2022-08-03T12:04:50;4.60;;;2.40;;
71423;SDS011;59240;51.370;-0.486;2022-08-03T12:07:26;4.63;;;2.80;;
71423;SDS011;59240;51.370;-0.486;2022-08-03T12:10:14;4.15;;;2.50;;
71423;SDS011;59240;51.370;-0.486;2022-08-03T12:12:41;3.28;;;2.80;;
71423;SDS011;59240;51.370;-0.486;2022-08-03T12:15:12;4.13;;;2.75;;
71423;SDS011;59240;51.370;-0.486;2022-08-03T12:17:39;4.90;;;2.60;;
71423;SDS011;59240;51.370;-0.486;2022-08-03T12:20:07;4.68;;;2.63;;
71423;SDS011;59240;51.370;-0.486;2022-08-03T12:22:36;3.65;;;2.50;;
71423;SDS011;59240;51.370;-0.486;2022-08-03T12:25:08;5.25;;;2.58;;
71423;SDS011;59240;51.370;-0.486;2022-08-03T12:27:35;5.32;;;2.50;;
71423;SDS011;59240;51.370;-0.486;2022-08-03T12:30:03;3.58;;;2.35;;
71423;SDS011;59240;51.370;-0.486;2022-08-03T12:32:30;4.38;;;2.35;;
71423;SDS011;59240;51.370;-0.486;2022-08-03T12:34:57;4.70;;;2.47;;
71423;SDS011;59240;51.370;-0.486;2022-08-03T12:37:27;3.08;;;2.13;;
71423;SDS011;59240;51.370;-0.486;2022-08-03T12:39:56;3.35;;;2.22;;
71423;SDS011;59240;51.370;-0.486;2022-08-03T12:42:36;4.20;;;2.70;;
71423;SDS011;59240;51.370;-0.486;2022-08-03T12:45:24;4.53;;;2.70;;
71423;SDS011;59240;51.370;-0.486;2022-08-03T12:47:54;4.38;;;2.85;;
71423;SDS011;59240;51.370;-0.486;2022-08-03T12:50:29;4.38;;;2.53;;
71423;SDS011;59240;51.370;-0.486;2022-08-03T12:55:25;5.82;;;2.72;;
71423;SDS011;59240;51.370;-0.486;2022-08-03T12:58:29;5.13;;;2.83;;
71423;SDS011;59240;51.370;-0.486;2022-08-03T13:00:59;8.43;;;2.75;;
71423;SDS011;59240;51.370;-0.486;2022-08-03T13:03:37;4.10;;;2.80;;
71423;SDS011;59240;51.370;-0.486;2022-08-03T13:06:12;4.85;;;3.38;;
71423;SDS011;59240;51.370;-0.486;2022-08-03T13:08:43;5.63;;;3.25;;
71423;SDS011;59240;51.370;-0.486;2022-08-03T13:11:24;5.45;;;3.08;;
71423;SDS011;59240;51.370;-0.486;2022-08-03T13:14:12;4.07;;;3.03;;
71423;SDS011;59240;51.370;-0.486;2022-08-03T13:16:45;6.95;;;3.45;;
71423;SDS011;59240;51.370;-0.486;2022-08-03T13:19:12;4.88;;;2.70;;
71423;SDS011;59240;51.370;-0.486;2022-08-03T13:21:41;8.10;;;3.17;;
71423;SDS011;59240;51.370;-0.486;2022-08-03T13:24:28;4.53;;;3.50;;
71423;SDS011;59240;51.370;-0.486;2022-08-03T13:26:57;4.55;;;3.05;;
71423;SDS011;59240;51.370;-0.486;2022-08-03T13:29:46;4.28;;;2.88;;
71423;SDS011;59240;51.370;-0.486;2022-08-03T13:32:13;7.55;;;3.15;;
71423;SDS011;59240;51.370;-0.486;2022-08-03T13:34:40;6.55;;;2.78;;
71423;SDS011;59240;51.370;-0.486;2022-08-03T13:37:06;3.05;;;2.47;;
71423;SDS011;59240;51.370;-0.486;2022-08-03T13:39:35;4.45;;;2.63;;
71423;SDS011;59240;51.370;-0.486;2022-08-03T13:42:22;4.72;;;2.60;;
71423;SDS011;59240;51.370;-0.486;2022-08-03T13:44:48;4.38;;;2.20;;
71423;SDS011;59240;51.370;-0.486;2022-08-03T13:47:16;3.38;;;2.20;;
71423;SDS011;59240;51.370;-0.486;2022-08-03T13:49:43;5.80;;;2.22;;
71423;SDS011;59240;51.370;-0.486;2022-08-03T13:52:31;4.60;;;2.65;;
71423;SDS011;59240;51.370;-0.486;2022-08-03T13:54:59;5.72;;;3.00;;
71423;SDS011;59240;51.370;-0.486;2022-08-03T13:57:27;5.53;;;2.97;;
71423;SDS011;59240;51.370;-0.486;2022-08-03T14:00:14;4.80;;;1.88;;
71423;SDS011;59240;51.370;-0.486;2022-08-03T14:02:57;5.65;;;2.42;;
71423;SDS011;59240;51.370;-0.486;2022-08-03T14:05:37;6.13;;;2.80;;
71423;SDS011;59240;51.370;-0.486;2022-08-03T14:08:05;5.03;;;2.75;;
71423;SDS011;59240;51.370;-0.486;2022-08-03T14:10:33;10.13;;;3.00;;
71423;SDS011;59240;51.370;-0.486;2022-08-03T14:13:01;5.57;;;2.70;;
71423;SDS011;59240;51.370;-0.486;2022-08-03T14:15:31;3.95;;;2.55;;
71423;SDS011;59240;51.370;-0.486;2022-08-03T14:18:03;6.80;;;2.83;;
71423;SDS011;59240;51.370;-0.486;2022-08-03T14:20:31;4.53;;;2.45;;
71423;SDS011;59240;51.370;-0.486;2022-08-03T14:23:11;5.10;;;2.42;;
71423;SDS011;59240;51.370;-0.486;2022-08-03T14:25:39;4.63;;;2.50;;
71423;SDS011;59240;51.370;-0.486;2022-08-03T14:28:18;4.50;;;2.17;;
71423;SDS011;59240;51.370;-0.486;2022-08-03T14:30:46;6.57;;;2.50;;
71423;SDS011;59240;51.370;-0.486;2022-08-03T14:33:14;3.92;;;2.50;;
71423;SDS011;59240;51.370;-0.486;2022-08-03T14:35:40;4.88;;;2.55;;
71423;SDS011;59240;51.370;-0.486;2022-08-03T14:38:07;4.25;;;2.00;;
71423;SDS011;59240;51.370;-0.486;2022-08-03T14:40:34;2.58;;;1.27;;
71423;SDS011;59240;51.370;-0.486;2022-08-03T14:43:01;4.82;;;1.60;;
71423;SDS011;59240;51.370;-0.486;2022-08-03T14:45:28;5.28;;;1.42;;
71423;SDS011;59240;51.370;-0.486;2022-08-03T14:47:54;7.53;;;1.67;;
71423;SDS011;59240;51.370;-0.486;2022-08-03T14:50:43;2.38;;;1.40;;
71423;SDS011;59240;51.370;-0.486;2022-08-03T14:53:18;3.17;;;1.50;;
71423;SDS011;59240;51.370;-0.486;2022-08-03T14:55:45;3.33;;;1.85;;
71423;SDS011;59240;51.370;-0.486;2022-08-03T14:58:21;2.78;;;1.60;;
71423;SDS011;59240;51.370;-0.486;2022-08-03T15:00:49;3.25;;;1.80;;
71423;SDS011;59240;51.370;-0.486;2022-08-03T15:03:17;4.63;;;1.60;;
71423;SDS011;59240;51.370;-0.486;2022-08-03T15:05:52;7.97;;;1.73;;
71423;SDS011;59240;51.370;-0.486;2022-08-03T15:08:21;4.13;;;1.38;;
71423;SDS011;59240;51.370;-0.486;2022-08-03T15:10:50;2.78;;;1.20;;
71423;SDS011;59240;51.370;-0.486;2022-08-03T15:13:21;3.20;;;1.25;;
71423;SDS011;59240;51.370;-0.486;2022-08-03T15:15:49;3.33;;;1.50;;
71423;SDS011;59240;51.370;-0.486;2022-08-03T15:18:17;3.45;;;1.52;;
71423;SDS011;59240;51.370;-0.486;2022-08-03T15:20:46;3.83;;;1.65;;
71423;SDS011;59240;51.370;-0.486;2022-08-03T15:23:16;4.30;;;1.20;;
71423;SDS011;59240;51.370;-0.486;2022-08-03T15:25:44;3.65;;;1.08;;
71423;SDS011;59240;51.370;-0.486;2022-08-03T15:28:33;8.43;;;1.23;;
71423;SDS011;59240;51.370;-0.486;2022-08-03T15:31:02;5.75;;;1.10;;
71423;SDS011;59240;51.370;-0.486;2022-08-03T15:33:29;5.30;;;1.40;;